Date,TemperatureHighF,TemperatureAvgF,TemperatureLowF,DewpointHighF,DewpointAvgF,DewpointLowF,HumidityHigh,HumidityAvg,HumidityLow,PressureMaxIn,PressureMinIn,WindSpeedMaxMPH,WindSpeedAvgMPH,GustSpeedMaxMPH,PrecipitationSumIn
2013-1-1,26,19,11,16,10,3,72,69,65,29.84,29.77,2,1,4,0.00
2013-1-2,25,19,15,4,2,1,58,48,35,29.90,29.82,2,1,4,0.00
2013-1-3,32,26,16,23,16,2,71,67,55,29.95,29.83,3,1,4,0.00
2013-1-4,32,25,13,21,14,4,70,63,58,29.97,29.90,2,0,7,0.00
2013-1-5,35,31,20,28,24,16,83,74,64,29.93,29.76,5,2,8,0.00
2013-1-6,26,25,24,18,17,17,76,72,67,30.00,29.76,2,1,4,0.00
2013-1-17,36,29,20,18,15,11,69,56,46,30.07,29.89,0,0,2,0.01
2013-1-18,40,34,19,23,20,12,72,58,49,30.08,29.72,0,0,0,0.00
2013-1-19,50,44,36,34,32,25,66,61,54,29.65,29.46,0,0,1,0.00
2013-1-20,26,22,19,7,5,2,55,49,43,29.93,29.88,0,0,3,0.00
2013-1-21,15,12,7,3,-7,-12,61,41,29,29.94,29.82,4,2,7,0.00
2013-1-22,15,10,2,-5,-8,-11,56,43,29,30.05,29.93,2,0,5,0.00
2013-1-23,22,20,13,7,2,-3,55,46,41,29.96,29.76,0,0,1,0.00
2013-1-24,24,21,9,2,-2,-5,56,35,27,30.18,30.09,1,0,3,0.00
2013-1-25,28,24,20,16,13,2,74,63,42,29.83,29.66,2,0,4,0.00
2013-1-26,32,25,14,13,10,5,69,55,43,30.04,29.97,1,0,3,0.02
2013-1-27,36,32,28,32,24,16,87,72,57,30.00,29.66,3,1,6,0.15
2013-1-28,51,50,49,50,49,47,97,94,93,29.59,29.56,4,1,5,0.01
2013-1-29,62,59,57,57,56,55,92,89,84,29.41,29.00,0,0,0,0.25
2013-1-30,51,41,28,49,38,22,97,88,77,29.19,28.92,1,0,6,0.40
2013-1-31,22,17,12,12,5,1,71,60,53,29.71,29.44,4,3,9,0.00
2013-2-1,18,16,14,5,1,-1,57,51,42,29.98,29.89,2,1,4,0.00
2013-2-2,28,22,12,18,13,2,75,68,56,29.88,29.63,3,2,4,0.00
2013-2-3,25,22,18,15,12,8,69,63,56,29.73,29.64,4,2,5,0.00
2013-2-4,40,31,27,27,21,17,73,67,58,29.57,29.43,2,1,3,0.02
2013-2-5,35,30,19,27,21,14,79,69,60,29.68,29.48,4,2,7,0.01
2013-2-6,39,34,29,24,22,18,71,60,51,29.89,29.82,2,1,4,0.00
2013-2-7,52,45,40,40,35,30,92,70,51,29.66,29.46,3,2,4,0.11
2013-2-8,34,30,29,26,24,23,79,78,74,30.01,29.88,2,1,2,0.00
2013-2-9,42,37,29,26,24,20,80,58,51,30.02,29.85,4,2,5,0.00
2013-2-10,51,47,33,47,41,21,88,80,61,29.76,29.26,4,3,6,0.20
2013-2-11,37,34,31,25,23,22,70,64,57,29.68,29.53,8,3,11,0.00
2013-2-12,34,31,27,24,22,19,74,70,64,29.75,29.61,2,1,5,0.00
2013-2-13,47,42,35,29,28,25,72,56,45,29.44,29.39,2,1,4,0.00
2013-2-14,39,37,32,30,28,25,75,72,70,29.62,29.54,2,1,4,0.00
2013-2-15,35,30,25,27,19,13,81,62,47,29.82,29.69,4,2,8,0.02
2013-2-16,23,21,19,6,4,2,52,47,43,29.81,29.76,4,2,7,0.01
2013-2-17,32,25,14,12,4,1,57,42,26,29.87,29.76,2,1,4,0.00
2013-2-18,49,46,39,43,37,25,81,72,55,29.51,29.26,6,4,8,0.03
2013-3-15,52,47,44,38,36,33,76,65,52,29.58,29.37,2,1,3,0.00
2013-3-16,45,38,33,39,32,25,92,79,68,29.66,29.34,4,2,7,0.00
2013-3-17,40,37,33,25,24,21,67,59,55,29.79,29.66,5,4,8,0.00
2013-3-18,38,36,30,36,30,21,90,79,66,29.48,29.26,4,3,8,0.04
2013-3-19,34,30,24,16,13,8,57,48,43,29.74,29.59,8,5,12,0.00
2013-3-20,31,26,23,8,6,1,53,42,31,29.73,29.67,6,4,8,0.00
2013-3-21,37,30,14,9,6,4,63,38,27,29.68,29.64,4,2,5,0.00
2013-3-24,35,32,30,27,25,23,87,76,61,29.31,29.14,7,2,12,0.02
2013-3-25,39,34,30,30,27,25,87,77,62,29.64,29.22,3,1,5,0.14
2013-3-26,43,36,30,27,25,23,77,64,53,29.87,29.74,3,2,5,0.27
2013-3-27,44,42,39,27,24,21,52,48,44,29.96,29.93,2,2,4,0.00
2013-3-28,49,43,31,26,24,21,70,47,34,29.99,29.92,2,1,4,0.00
2013-3-29,55,47,33,32,29,27,79,52,41,29.94,29.84,2,0,3,0.00
2013-4-1,43,37,29,16,15,12,57,40,29,29.80,29.72,4,2,6,0.00
2013-4-2,47,38,24,17,13,8,65,37,22,29.92,29.84,4,2,5,0.00
2013-4-3,50,44,33,20,17,11,49,34,25,30.06,29.96,4,2,6,0.00
2013-4-4,61,54,27,22,20,16,62,29,22,29.87,29.63,2,2,3,0.00
2013-4-5,36,36,36,23,23,23,59,59,59,29.80,29.80,2,2,3,0.00
2013-4-6,71,64,50,41,36,30,46,37,30,29.72,29.37,7,4,11,0.00
2013-4-7,71,60,49,47,43,40,88,57,32,29.56,29.51,3,1,5,0.02
2013-4-8,76,68,60,62,58,54,98,71,51,29.54,29.38,4,2,8,0.06
2013-4-9,80,76,67,61,60,58,80,59,48,29.54,29.46,8,3,9,0.00
2013-4-10,66,54,47,59,52,47,99,93,69,29.50,29.42,3,1,4,0.94
2013-4-12,42,41,38,38,36,36,90,84,78,29.54,29.41,4,3,7,0.01
2013-4-13,48,44,39,38,34,32,97,70,59,29.63,29.54,6,2,8,0.02
2013-4-14,75,67,41,50,46,37,83,49,35,29.62,29.38,4,2,7,0.00
2013-4-15,65,62,60,60,57,54,95,84,74,29.53,29.47,4,2,6,0.04
2013-4-16,53,49,47,49,46,41,99,90,73,29.82,29.71,4,1,8,0.76
2013-4-17,68,57,46,63,53,41,95,85,80,29.82,29.50,5,2,8,0.51
2013-4-18,71,61,60,65,61,60,99,98,82,29.32,29.20,6,1,8,1.83
2013-4-19,39,37,37,33,32,32,84,82,79,29.57,29.42,2,2,6,0.29
2013-4-20,47,43,32,30,28,26,86,56,46,29.93,29.75,3,2,5,0.00
2013-4-22,57,54,52,37,36,36,54,51,47,29.73,29.72,0,0,0,0.00
2013-4-23,67,59,55,57,53,44,99,82,56,29.63,29.44,2,1,4,0.26
2013-4-24,50,43,37,38,35,33,97,75,51,29.76,29.57,3,2,4,0.26
2013-4-25,57,49,39,34,32,31,77,54,37,29.99,29.79,4,2,11,0.00
2013-4-26,68,57,52,43,42,41,68,59,37,29.95,29.93,2,0,2,0.00
2013-5-27,77,61,41,71,58,32,99,80,38,29.97,29.48,1,0,2,0.00
2013-5-28,82,75,65,70,68,64,99,78,67,29.52,29.44,3,1,5,0.00
2013-5-29,87,79,70,67,65,62,83,63,50,29.60,29.55,2,1,7,0.00
2013-5-30,72,72,72,66,66,66,81,81,81,29.61,29.61,0,0,1,0.00
2013-7-1,74,68,65,63,59,55,78,72,68,29.60,29.56,2,1,4,0.00
2013-7-2,69,66,62,62,61,58,90,85,78,29.64,29.61,2,0,2,0.00
2013-7-3,80,74,69,66,65,63,83,73,62,29.69,29.66,1,0,2,0.00
2013-7-4,82,75,58,67,63,58,99,70,53,29.76,29.69,1,0,2,0.00
2013-7-5,83,76,67,68,66,65,96,74,57,29.73,29.66,0,0,1,0.00
2013-7-6,73,72,71,71,69,67,92,89,86,29.70,29.64,0,0,0,0.05
2013-7-7,89,77,68,71,69,67,95,77,55,29.70,29.62,0,0,2,0.00
2013-7-8,91,79,71,74,72,68,92,79,57,29.71,29.63,2,0,2,0.00
2013-7-9,94,86,77,76,74,72,85,70,55,29.66,29.59,3,1,5,0.00
2013-7-10,94,94,94,75,75,75,55,55,55,29.59,29.59,3,3,5,0.00
2013-7-18,97,94,87,74,73,71,65,50,46,29.74,29.64,2,1,3,0.00
2013-7-26,77,76,75,61,60,60,59,58,58,29.67,29.66,0,0,0,0.00
2013-7-27,66,62,59,53,51,49,71,67,63,29.57,29.53,0,0,1,0.00
2013-7-28,72,64,52,54,51,48,88,65,53,29.64,29.57,3,1,5,0.00
2013-7-29,75,68,56,57,55,53,89,65,48,29.77,29.73,2,1,3,0.00
2013-8-5,68,67,66,65,65,64,94,92,91,29.58,29.55,0,0,0,0.00
2013-8-6,79,75,69,70,68,65,88,80,71,29.56,29.50,0,0,0,0.00
2013-8-7,84,77,70,74,72,68,95,84,67,29.54,29.46,1,0,3,0.00
2013-8-8,76,72,68,71,68,66,94,88,83,29.60,29.54,0,0,1,0.20
2013-8-9,85,78,69,67,64,61,80,61,47,29.63,29.61,2,0,3,0.00
2013-8-10,86,78,70,70,67,63,84,69,48,29.72,29.68,0,0,2,0.00
2013-8-11,84,79,68,65,64,62,88,60,50,29.71,29.69,1,0,2,0.00
2013-8-12,80,75,68,70,68,65,91,79,69,29.64,29.50,1,0,2,0.03
2013-8-13,72,64,56,63,56,51,95,77,51,29.74,29.58,3,1,5,0.01
2013-8-14,50,50,50,48,48,48,93,93,93,29.79,29.79,0,0,0,0.00
2013-8-16,78,74,64,59,56,54,86,57,46,29.80,29.77,1,0,3,0.00
2013-8-17,81,74,60,60,59,57,89,60,44,29.85,29.76,2,0,3,0.00
2013-8-18,81,72,58,65,63,56,93,73,57,29.82,29.72,0,0,0,0.00
2013-8-19,85,72,60,66,63,59,96,76,49,29.76,29.68,0,0,0,0.00
2013-8-20,88,86,83,66,65,64,56,50,45,29.70,29.69,0,0,0,0.00
2013-8-21,93,80,69,70,68,65,94,68,46,29.75,29.66,0,0,0,0.00
2013-8-22,72,71,71,68,68,67,90,88,84,29.75,29.73,1,0,2,0.00
2013-8-23,74,66,64,67,64,63,97,94,80,29.77,29.73,0,0,0,0.00
2013-8-24,59,58,57,58,57,56,96,96,95,29.88,29.87,0,0,0,0.00
2013-8-25,58,58,58,57,57,57,95,95,95,29.92,29.92,0,0,0,0.00
2013-8-31,77,75,73,74,71,70,94,89,84,29.44,29.37,0,0,2,0.54
2013-9-1,79,76,71,72,70,69,94,84,77,29.43,29.40,0,0,2,0.00
2013-9-2,86,79,69,66,63,61,76,59,48,29.54,29.50,1,0,2,0.00
2013-9-3,75,72,64,60,57,55,86,62,50,29.70,29.65,2,0,4,0.00
2013-9-4,83,70,52,62,58,52,99,70,46,29.76,29.70,0,0,1,0.00
2013-9-5,81,74,66,64,63,62,88,69,55,29.81,29.78,1,0,2,0.00
2013-9-6,83,79,73,64,64,62,73,60,50,29.73,29.70,0,0,0,0.00
2013-9-7,91,79,63,67,65,62,97,64,43,29.68,29.56,1,0,2,0.00
2013-9-8,67,67,67,66,66,66,96,96,96,29.58,29.58,0,0,0,0.00
2013-9-9,95,88,70,73,71,68,93,59,50,29.59,29.50,2,0,4,0.00
2013-9-12,79,73,65,70,61,52,98,70,42,29.64,29.52,4,2,7,0.89
2013-9-13,68,64,52,50,47,46,80,55,48,29.76,29.70,2,1,3,0.00
2013-9-14,64,53,42,50,46,42,99,80,55,29.81,29.70,0,0,0,0.00
2013-9-15,62,56,50,52,49,46,89,80,71,29.72,29.72,0,0,0,0.00
2013-9-18,82,77,68,66,63,59,72,62,56,29.74,29.62,2,0,4,0.00
2013-9-19,85,79,71,72,70,69,92,75,64,29.64,29.50,2,1,4,1.04
2013-9-20,75,70,63,69,67,60,98,89,75,29.51,29.43,1,0,2,0.42
2013-9-21,70,64,52,56,51,47,98,65,46,29.48,29.46,3,1,6,0.00
2013-9-22,55,49,46,48,46,45,97,91,78,29.65,29.62,0,0,1,0.00
2013-9-23,70,61,48,51,49,47,96,68,44,29.73,29.65,2,0,2,0.00
2013-9-24,72,65,47,53,51,46,96,62,51,29.69,29.53,1,0,2,0.00
2013-9-25,73,63,51,56,53,49,92,72,54,29.57,29.51,0,0,2,0.00
2013-9-26,76,70,50,55,54,50,99,58,46,29.67,29.64,1,0,2,0.00
2013-9-27,81,67,51,54,51,49,95,61,37,29.78,29.70,1,0,2,0.00
2013-9-28,51,51,51,50,50,50,98,98,98,29.75,29.75,0,0,0,0.00
2013-9-29,70,65,59,60,57,53,97,78,56,29.65,29.60,2,0,5,0.23
2013-9-30,73,68,60,60,59,57,95,72,61,29.64,29.55,3,1,4,0.00
2013-10-1,76,72,68,65,64,63,87,77,67,29.66,29.58,2,0,4,0.00
2013-10-2,76,70,65,69,67,65,99,89,76,29.71,29.65,2,0,2,0.00
2013-10-3,77,73,67,70,68,66,99,86,75,29.62,29.53,0,0,0,0.21
2013-10-4,84,74,67,71,68,65,93,81,66,29.64,29.58,2,0,2,0.00
2013-10-5,69,69,68,69,68,68,99,98,98,29.60,29.59,0,0,0,0.00
2013-10-7,64,53,47,50,47,45,92,80,52,29.74,29.56,2,1,4,0.03
2013-10-8,53,48,46,50,47,45,99,96,87,29.83,29.81,0,0,0,0.00
2013-10-9,70,62,44,52,48,43,98,63,42,29.86,29.77,2,0,2,0.00
2013-10-10,72,67,46,55,53,45,97,63,52,29.80,29.71,1,0,2,0.00
2013-10-11,73,64,47,55,50,46,99,65,41,29.73,29.63,0,0,0,0.00
2013-10-12,74,68,51,62,60,50,94,77,63,29.70,29.64,0,0,1,0.00
2013-10-13,57,48,44,44,42,41,98,84,55,30.00,29.91,0,0,2,0.00
2013-10-14,64,55,50,46,45,44,89,71,48,30.00,29.82,1,0,2,0.00
2013-10-15,50,50,50,48,48,48,95,95,95,29.67,29.67,0,0,0,0.00
2013-10-22,39,38,36,38,37,34,98,97,94,29.53,29.52,1,0,2,0.21
2013-10-23,45,40,32,36,33,31,97,76,62,29.68,29.54,2,0,4,0.05
2013-10-24,42,40,37,32,27,24,82,62,53,29.92,29.68,2,0,3,0.00
2013-10-25,48,39,26,30,27,22,84,63,47,30.05,29.88,2,0,4,0.00
2013-10-28,31,31,31,30,29,29,93,93,93,29.81,29.79,0,0,0,0.00
2013-11-6,55,48,42,52,46,41,95,94,91,29.69,29.48,4,2,7,0.20
2013-11-8,51,47,45,30,29,29,57,50,44,29.94,29.76,4,2,6,0.00
2013-11-9,61,53,44,39,36,32,63,53,44,29.63,29.59,6,3,12,0.00
2013-11-10,48,45,40,32,31,30,71,58,48,29.98,29.92,3,1,4,0.00
2013-11-11,46,38,32,36,33,29,92,84,59,30.01,29.76,4,2,5,0.04
2013-11-12,33,30,27,25,22,19,82,73,65,30.27,30.18,2,1,3,0.06
2013-11-13,38,29,18,18,16,11,75,59,45,30.25,29.99,4,2,4,0.02
2013-11-14,53,50,47,20,18,16,34,28,23,29.68,29.68,4,3,7,0.00
2013-11-15,48,48,48,33,33,33,58,58,58,29.66,29.66,2,2,3,0.00
2013-11-16,63,57,49,54,50,45,89,78,63,29.61,29.34,7,4,13,0.00
2013-11-17,58,51,48,54,45,40,88,80,76,29.36,28.97,5,5,8,0.58
2013-11-18,48,43,38,38,34,28,81,70,60,29.79,29.45,4,3,7,0.00
2013-11-19,28,28,28,24,24,24,84,84,84,29.96,29.96,0,0,0,0.00
2013-11-20,45,45,45,31,31,31,59,59,59,29.79,29.79,2,2,4,0.00
2013-11-22,44,37,34,44,32,28,98,83,78,30.08,29.83,1,1,3,0.09
2013-11-23,24,24,23,17,14,7,74,66,51,30.21,30.06,2,1,3,0.00
2013-11-24,18,18,18,5,5,5,55,55,55,30.15,30.15,0,0,0,0.00
2013-11-25,32,31,24,17,15,10,54,50,48,29.95,29.79,3,2,4,0.00
2013-11-27,20,18,17,8,7,7,66,62,59,29.91,29.81,2,1,4,0.00
2013-11-28,23,23,23,9,9,9,54,54,54,29.93,29.93,2,2,3,0.00
2013-11-29,26,26,26,17,17,17,69,69,69,30.14,30.14,0,0,0,0.00
2013-11-30,30,30,30,21,21,21,71,71,71,29.99,29.99,1,1,2,0.00
2013-12-1,42,42,42,33,33,33,71,71,70,29.71,29.70,0,0,2,0.00
2013-12-2,42,39,38,36,35,33,95,87,69,29.43,29.41,2,2,4,0.05
2013-12-3,50,49,49,48,47,46,97,93,89,29.37,29.35,4,2,5,0.00
2013-12-4,61,59,58,56,56,56,91,90,86,29.25,29.23,2,2,4,0.01
2013-12-5,29,27,26,19,16,15,67,64,63,29.79,29.71,2,2,4,0.00
2013-12-9,17,17,17,5,5,5,60,60,60,29.86,29.86,2,2,4,0.00
2013-12-10,26,24,19,10,7,1,54,49,46,29.85,29.75,4,3,8,0.00
2013-12-13,30,25,16,28,16,5,93,70,56,29.85,29.74,2,0,3,0.03
2013-12-14,33,28,26,32,25,22,94,87,84,29.55,29.48,0,0,0,0.00
2013-12-15,18,18,17,11,10,9,73,70,67,29.73,29.69,0,0,0,0.00
2013-12-16,23,19,15,20,12,8,88,73,66,29.76,29.65,0,0,0,0.00
2013-12-17,30,25,18,24,20,13,82,81,78,29.70,29.63,3,1,6,0.00
2013-12-18,32,32,31,15,14,14,48,48,48,29.63,29.62,4,3,8,0.00
2013-12-20,56,53,44,55,51,42,98,94,85,29.41,29.34,4,3,8,0.16
2013-12-21,36,34,33,34,33,32,95,94,93,29.43,29.37,1,0,2,2.05
2013-12-22,36,34,30,34,31,26,93,90,87,29.68,29.39,4,3,8,0.08
2013-12-23,25,19,12,17,10,2,79,68,62,30.10,29.99,4,2,8,0.00
2013-12-24,19,19,19,6,6,6,57,57,57,30.06,30.06,2,2,3,0.00
2013-12-25,29,26,24,26,15,11,89,62,57,29.93,29.78,4,2,6,0.00
2013-12-26,34,32,25,23,20,15,65,63,56,29.97,29.89,3,2,4,0.00
2014-1-2,17,13,9,7,1,-4,66,59,52,30.00,29.75,2,1,4,0.00